createdAt,value
2019-01-08T00:02:15.037Z,20.67
2019-01-08T00:04:43.701Z,17.70
2019-01-08T00:07:12.349Z,18.70
2019-01-08T00:09:42.580Z,25.80
2019-01-08T00:12:11.311Z,19.97
2019-01-08T00:14:40.006Z,25.40
2019-01-08T00:17:08.681Z,17.70
2019-01-08T00:19:37.398Z,16.70
2019-01-08T00:22:06.041Z,21.60
2019-01-08T00:24:34.714Z,20.07
2019-01-08T00:27:03.408Z,23.47
2019-01-08T00:29:33.121Z,20.77
2019-01-08T00:32:01.854Z,22.43
2019-01-08T00:34:30.493Z,19.77
2019-01-08T00:36:59.162Z,23.33
2019-01-08T00:39:27.837Z,20.80
2019-01-08T00:41:56.426Z,21.73
2019-01-08T00:44:25.070Z,20.13
2019-01-08T00:46:53.787Z,21.17
2019-01-08T00:49:22.457Z,22.07
2019-01-08T00:51:51.145Z,19.23
2019-01-08T00:54:19.817Z,22.67
2019-01-08T00:56:48.510Z,22.27
2019-01-08T00:59:17.181Z,23.17
2019-01-08T01:01:45.761Z,25.67
2019-01-08T01:04:14.478Z,23.27
2019-01-08T01:06:43.152Z,22.77
2019-01-08T01:09:11.819Z,24.77
2019-01-08T01:11:40.496Z,17.90
2019-01-08T01:14:09.168Z,24.13
2019-01-08T01:16:40.088Z,21.87
2019-01-08T01:19:08.859Z,21.80
2019-01-08T01:21:37.594Z,19.90
2019-01-08T01:24:06.244Z,21.00
2019-01-08T01:26:34.905Z,25.33
2019-01-08T01:29:03.578Z,17.77
2019-01-08T01:31:33.717Z,21.20
2019-01-08T01:34:02.408Z,18.87
2019-01-08T01:36:31.064Z,20.60
2019-01-08T01:38:59.757Z,19.13
2019-01-08T01:41:28.443Z,22.33
2019-01-08T01:43:57.112Z,22.20
2019-01-08T01:46:25.773Z,20.13
2019-01-08T01:48:54.445Z,18.97
2019-01-08T01:51:23.167Z,22.30
2019-01-08T01:53:52.936Z,13.20
2019-01-08T01:56:21.629Z,28.43
2019-01-08T01:58:50.323Z,24.30
2019-01-08T02:01:19.015Z,19.40
2019-01-08T02:03:47.689Z,20.10
2019-01-08T02:06:16.361Z,18.87
2019-01-08T02:08:45.040Z,20.73
2019-01-08T02:11:13.690Z,19.97
2019-01-08T02:13:42.524Z,16.27
2019-01-08T02:16:11.186Z,17.10
2019-01-08T02:18:39.953Z,14.03
2019-01-08T02:21:08.677Z,17.00
2019-01-08T02:23:37.320Z,18.27
2019-01-08T02:26:05.911Z,19.13
2019-01-08T02:28:34.552Z,20.43
2019-01-08T02:31:03.279Z,14.13
2019-01-08T02:33:31.912Z,22.17
2019-01-08T02:36:00.547Z,19.53
2019-01-08T02:38:29.220Z,15.53
2019-01-08T02:40:57.888Z,17.67
2019-01-08T02:43:26.616Z,17.20
2019-01-08T02:45:55.283Z,18.20
2019-01-08T02:48:23.974Z,19.00
2019-01-08T02:50:52.665Z,18.30
2019-01-08T02:53:21.364Z,20.27
2019-01-08T02:55:50.032Z,17.93
2019-01-08T02:58:18.704Z,21.37
2019-01-08T03:00:47.368Z,18.50
2019-01-08T03:03:16.039Z,19.15
2019-01-08T03:05:44.742Z,16.83
2019-01-08T03:08:13.417Z,15.40
2019-01-08T03:10:42.080Z,19.00
2019-01-08T03:13:10.780Z,17.77
2019-01-08T03:15:39.442Z,14.10
2019-01-08T03:18:08.101Z,19.73
2019-01-08T03:20:36.802Z,20.20
2019-01-08T03:23:05.510Z,16.73
2019-01-08T03:25:34.096Z,14.03
2019-01-08T03:28:02.764Z,14.17
2019-01-08T03:30:31.452Z,17.73
2019-01-08T03:33:00.084Z,16.97
2019-01-08T03:35:28.734Z,16.13
2019-01-08T03:37:57.340Z,12.97
2019-01-08T03:40:26.059Z,20.30
2019-01-08T03:42:54.724Z,14.17
2019-01-08T03:45:23.386Z,17.50
2019-01-08T03:47:52.038Z,15.33
2019-01-08T03:50:20.716Z,13.77
2019-01-08T03:52:49.401Z,17.33
2019-01-08T03:55:17.959Z,16.27
2019-01-08T03:57:47.818Z,16.27
2019-01-08T04:00:16.462Z,14.53
2019-01-08T04:02:45.142Z,14.73
2019-01-08T04:05:13.814Z,15.60
2019-01-08T04:07:42.456Z,14.50
2019-01-08T04:10:11.135Z,15.17
2019-01-08T04:12:39.808Z,15.63
2019-01-08T04:15:08.521Z,14.90
2019-01-08T04:17:37.207Z,16.73
2019-01-08T04:20:05.881Z,16.97
2019-01-08T04:22:34.564Z,19.73
2019-01-08T04:25:03.237Z,14.30
2019-01-08T04:27:31.908Z,14.90
2019-01-08T04:30:00.564Z,16.87
2019-01-08T04:32:29.286Z,19.47
2019-01-08T04:34:57.965Z,22.47
2019-01-08T04:37:26.620Z,19.70
2019-01-08T04:39:55.319Z,17.23
2019-01-08T04:42:23.984Z,19.17
2019-01-08T04:44:52.658Z,19.20
2019-01-08T04:47:21.420Z,27.10
2019-01-08T04:49:51.549Z,23.53
2019-01-08T04:52:20.233Z,20.60
2019-01-08T04:54:48.893Z,27.95
2019-01-08T04:57:17.425Z,20.37
2019-01-08T04:59:46.084Z,21.30
2019-01-08T05:02:14.752Z,20.90
2019-01-08T05:04:43.402Z,24.47
2019-01-08T05:07:13.163Z,23.00
2019-01-08T05:09:41.827Z,24.37
2019-01-08T05:12:10.504Z,27.43
2019-01-08T05:14:39.169Z,28.50
2019-01-08T05:17:07.839Z,18.67
2019-01-08T05:19:36.571Z,24.17
2019-01-08T05:22:05.240Z,25.83
2019-01-08T05:24:33.953Z,24.47
2019-01-08T05:27:02.620Z,30.30
2019-01-08T05:29:33.338Z,23.00
2019-01-08T05:32:01.973Z,25.97
2019-01-08T05:34:30.639Z,27.17
2019-01-08T05:36:59.447Z,25.67
2019-01-08T05:39:28.116Z,29.40
2019-01-08T05:41:56.841Z,30.37
2019-01-08T05:44:25.510Z,29.80
2019-01-08T05:46:54.182Z,27.50
2019-01-08T05:49:22.858Z,28.53
2019-01-08T05:51:51.528Z,33.73
2019-01-08T05:54:20.192Z,36.37
2019-01-08T05:56:48.900Z,25.30
2019-01-08T05:59:17.648Z,34.27
2019-01-08T06:01:46.378Z,29.37
2019-01-08T06:04:15.015Z,33.80
2019-01-08T06:06:43.715Z,27.83
2019-01-08T06:09:13.583Z,27.70
2019-01-08T06:11:42.265Z,30.83
2019-01-08T06:14:10.969Z,29.50
2019-01-08T06:16:39.679Z,29.53
2019-01-08T06:19:08.483Z,35.83
2019-01-08T06:21:37.115Z,24.10
2019-01-08T06:24:05.806Z,32.87
2019-01-08T06:26:34.510Z,31.37
2019-01-08T06:29:03.286Z,32.50
2019-01-08T06:31:33.644Z,32.33
2019-01-08T06:34:02.353Z,32.30
2019-01-08T06:36:31.036Z,34.60
2019-01-08T06:38:59.778Z,38.07
2019-01-08T06:41:28.475Z,39.37
2019-01-08T06:43:57.128Z,38.93
2019-01-08T06:46:25.813Z,28.67
2019-01-08T06:48:54.518Z,31.13
2019-01-08T06:51:23.258Z,35.40
2019-01-08T06:53:51.917Z,34.37
2019-01-08T06:56:20.605Z,30.30
2019-01-08T06:58:49.271Z,38.57
2019-01-08T07:01:17.928Z,36.90
2019-01-08T07:03:46.618Z,36.63
2019-01-08T07:06:15.318Z,31.87
2019-01-08T07:08:44.096Z,34.83
2019-01-08T07:11:12.929Z,31.10
2019-01-08T07:13:41.563Z,31.27
2019-01-08T07:16:10.226Z,28.50
2019-01-08T07:18:38.911Z,31.27
2019-01-08T07:21:07.650Z,34.40
2019-01-08T07:23:36.298Z,27.77
2019-01-08T07:26:05.000Z,27.83
2019-01-08T07:28:33.654Z,37.10
2019-01-08T07:31:02.308Z,37.83
2019-01-08T07:33:30.980Z,32.00
2019-01-08T07:35:59.748Z,27.33
2019-01-08T07:38:28.416Z,31.43
2019-01-08T07:40:57.118Z,31.90
2019-01-08T07:43:25.816Z,30.50
2019-01-08T07:45:54.492Z,32.10
2019-01-08T07:48:23.137Z,21.17
2019-01-08T07:50:51.807Z,34.40
2019-01-08T07:53:20.471Z,30.23
2019-01-08T07:55:49.160Z,30.10
2019-01-08T07:58:17.831Z,31.17
2019-01-08T08:00:50.081Z,28.43
2019-01-08T08:03:16.874Z,28.27
2019-01-08T08:05:45.541Z,27.50
2019-01-08T08:08:14.218Z,31.50
2019-01-08T08:10:42.882Z,33.60
2019-01-08T08:13:11.536Z,26.23
2019-01-08T08:15:40.203Z,33.00
2019-01-08T08:18:08.926Z,35.77
2019-01-08T08:20:37.613Z,44.57
2019-01-08T08:23:06.301Z,32.97
2019-01-08T08:25:35.025Z,35.73
2019-01-08T08:28:03.693Z,35.43
2019-01-08T08:30:32.401Z,40.47
2019-01-08T08:33:01.107Z,32.10
2019-01-08T08:35:29.813Z,30.93
2019-01-08T08:37:58.480Z,32.73
2019-01-08T08:40:27.143Z,30.93
2019-01-08T08:42:55.831Z,28.30
2019-01-08T08:45:24.512Z,37.90
2019-01-08T08:47:53.184Z,34.07
2019-01-08T08:50:21.848Z,30.97
2019-01-08T08:52:50.557Z,35.87
2019-01-08T08:55:19.206Z,36.93
2019-01-08T08:57:47.880Z,36.03
2019-01-08T09:00:16.544Z,37.20
2019-01-08T09:02:45.240Z,38.00
2019-01-08T09:05:13.896Z,31.87
2019-01-08T09:07:42.562Z,31.07
2019-01-08T09:10:11.304Z,34.70
2019-01-08T09:12:39.984Z,32.93
2019-01-08T09:15:08.674Z,31.77
2019-01-08T09:17:37.352Z,33.67
2019-01-08T09:20:08.924Z,32.97
2019-01-08T09:22:37.592Z,33.90
2019-01-08T09:25:07.109Z,31.40
2019-01-08T09:27:35.784Z,32.83
2019-01-08T09:30:06.820Z,42.37
2019-01-08T09:32:35.646Z,36.40
2019-01-08T09:35:05.497Z,35.93
2019-01-08T09:37:34.200Z,38.00
2019-01-08T09:40:03.182Z,27.90
2019-01-08T09:42:32.030Z,27.47
2019-01-08T09:45:00.714Z,34.13
2019-01-08T09:47:29.386Z,45.13
2019-01-08T09:49:58.099Z,38.57
2019-01-08T09:52:26.738Z,32.10
2019-01-08T09:54:55.443Z,40.50
2019-01-08T09:57:24.107Z,45.30
2019-01-08T09:59:52.868Z,32.57
2019-01-08T10:02:21.580Z,43.30
2019-01-08T10:04:50.269Z,43.60
2019-01-08T10:07:18.942Z,39.90
2019-01-08T10:09:47.622Z,38.07
2019-01-08T10:12:16.286Z,41.73
2019-01-08T10:14:44.956Z,43.87
2019-01-08T10:17:13.658Z,44.03
2019-01-08T10:19:42.488Z,34.30
2019-01-08T10:22:11.158Z,28.00
2019-01-08T10:24:39.825Z,38.63
2019-01-08T10:27:08.524Z,36.70
2019-01-08T10:29:37.231Z,40.47
2019-01-08T10:32:05.947Z,45.92
2019-01-08T10:34:34.621Z,42.47
2019-01-08T10:37:03.321Z,43.83
2019-01-08T10:39:31.990Z,43.67
2019-01-08T10:42:00.688Z,44.40
2019-01-08T10:44:29.370Z,48.43
2019-01-08T10:46:58.048Z,43.70
2019-01-08T10:49:26.726Z,48.00
2019-01-08T10:51:55.405Z,50.67
2019-01-08T10:54:24.122Z,47.40
2019-01-08T10:56:52.784Z,40.90
2019-01-08T10:59:21.500Z,44.97
2019-01-08T11:01:50.324Z,49.97
2019-01-08T11:04:18.992Z,41.33
2019-01-08T11:06:47.665Z,46.10
2019-01-08T11:09:16.345Z,52.97
2019-01-08T11:11:45.109Z,46.90
2019-01-08T11:14:13.765Z,48.57
2019-01-08T11:16:42.454Z,51.90
2019-01-08T11:19:11.110Z,44.10
2019-01-08T11:21:39.806Z,45.87
2019-01-08T11:24:08.490Z,48.73
2019-01-08T11:26:37.201Z,47.13
2019-01-08T11:29:05.911Z,47.07
2019-01-08T11:31:34.573Z,50.47
2019-01-08T11:34:03.268Z,52.87
2019-01-08T11:36:31.965Z,47.33
2019-01-08T11:39:00.676Z,46.47
2019-01-08T11:41:29.413Z,51.90
2019-01-08T11:43:58.087Z,44.90
2019-01-08T11:46:26.805Z,48.03
2019-01-08T11:48:55.462Z,54.07
2019-01-08T11:51:24.155Z,52.13
2019-01-08T11:53:52.819Z,52.90
2019-01-08T11:56:21.501Z,50.50
2019-01-08T11:58:50.162Z,48.73
2019-01-08T12:01:21.826Z,52.40
2019-01-08T12:03:50.597Z,46.27
2019-01-08T12:06:19.277Z,60.00
2019-01-08T12:08:47.992Z,51.93
2019-01-08T12:11:16.983Z,46.67
2019-01-08T12:13:47.233Z,63.83
2019-01-08T12:16:15.939Z,57.30
2019-01-08T12:18:44.568Z,53.50
2019-01-08T12:21:13.350Z,61.73
2019-01-08T12:23:41.977Z,56.23
2019-01-08T12:26:10.720Z,58.40
2019-01-08T12:28:39.379Z,62.67
2019-01-08T12:31:08.060Z,66.90
2019-01-08T12:33:36.762Z,63.37
2019-01-08T12:36:05.473Z,66.70
2019-01-08T12:38:34.130Z,61.43
2019-01-08T12:41:02.778Z,63.40
2019-01-08T12:43:46.441Z,60.57
2019-01-08T12:46:30.820Z,57.57
2019-01-08T12:48:59.440Z,66.60
2019-01-08T12:51:28.132Z,65.40
2019-01-08T12:53:56.845Z,60.37
2019-01-08T12:56:25.522Z,68.60
2019-01-08T12:58:54.177Z,69.57
2019-01-08T13:01:22.858Z,73.03
2019-01-08T13:03:51.529Z,63.67
2019-01-08T13:06:20.191Z,80.47
2019-01-08T13:08:48.847Z,74.93
2019-01-08T13:11:17.579Z,87.27
2019-01-08T13:13:46.248Z,82.60
2019-01-08T13:16:14.909Z,68.60
2019-01-08T13:18:43.609Z,73.23
2019-01-08T13:21:12.284Z,69.33
2019-01-08T13:23:40.960Z,73.57
2019-01-08T13:26:09.636Z,65.07
2019-01-08T13:28:38.422Z,92.33
2019-01-08T13:31:07.094Z,84.40
2019-01-08T13:33:35.788Z,74.00
2019-01-08T13:36:04.560Z,89.20
2019-01-08T13:38:33.240Z,89.07
2019-01-08T13:41:01.889Z,94.63
2019-01-08T13:43:30.577Z,89.20
2019-01-08T13:45:59.289Z,92.37
2019-01-08T13:48:27.953Z,95.47
2019-01-08T13:50:56.634Z,91.00
2019-01-08T13:53:25.304Z,84.23
2019-01-08T13:55:53.998Z,80.40
2019-01-08T13:58:22.697Z,91.00
2019-01-08T14:00:51.360Z,89.93
2019-01-08T14:03:20.129Z,92.20
2019-01-08T14:05:48.776Z,107.63
2019-01-08T14:08:17.449Z,119.30
2019-01-08T14:10:46.135Z,111.53
2019-01-08T14:13:14.795Z,109.00
2019-01-08T14:15:43.471Z,107.10
2019-01-08T14:18:12.135Z,98.67
2019-01-08T14:20:40.860Z,127.47
2019-01-08T14:23:09.523Z,102.83
2019-01-08T14:25:38.182Z,108.03
2019-01-08T14:28:06.866Z,109.60
2019-01-08T14:30:35.533Z,121.00
2019-01-08T14:33:04.232Z,116.20
2019-01-08T14:35:32.879Z,127.30
2019-01-08T14:38:01.605Z,161.70
2019-01-08T14:40:30.305Z,165.17
2019-01-08T14:42:59.009Z,136.40
2019-01-08T14:45:27.729Z,130.20
2019-01-08T14:47:56.416Z,130.10
2019-01-08T14:50:25.197Z,230.43
2019-01-08T14:52:53.865Z,123.00
2019-01-08T14:55:22.583Z,141.97
2019-01-08T14:57:51.259Z,123.27
2019-01-08T15:00:19.930Z,129.93
2019-01-08T15:02:49.737Z,116.10
2019-01-08T15:05:18.793Z,89.27
2019-01-08T15:07:47.498Z,101.80
2019-01-08T15:10:16.152Z,137.00
2019-01-08T15:12:44.895Z,125.83
2019-01-08T15:15:13.572Z,93.00
2019-01-08T15:17:42.234Z,130.03
2019-01-08T15:20:10.950Z,128.73
2019-01-08T15:22:39.626Z,154.68
2019-01-08T15:25:08.333Z,101.87
2019-01-08T15:27:36.987Z,106.57
2019-01-08T15:30:08.692Z,123.33
2019-01-08T15:32:37.365Z,114.93
2019-01-08T15:35:06.359Z,104.90
2019-01-08T15:37:35.061Z,115.83
2019-01-08T15:40:03.761Z,137.63
2019-01-08T15:42:32.451Z,132.63
2019-01-08T15:45:02.715Z,139.23
2019-01-08T15:47:31.518Z,147.20
2019-01-08T15:50:00.188Z,121.00
2019-01-08T15:52:28.890Z,142.73
2019-01-08T15:54:57.554Z,140.67
2019-01-08T15:57:26.223Z,160.80
2019-01-08T15:59:54.924Z,172.23
2019-01-08T16:02:23.581Z,140.53
2019-01-08T16:04:52.768Z,150.30
2019-01-08T16:07:21.442Z,155.77
2019-01-08T16:09:50.202Z,176.00
2019-01-08T16:12:18.956Z,177.60
2019-01-08T16:14:47.648Z,161.60
2019-01-08T16:17:17.117Z,186.83
2019-01-08T16:19:46.130Z,173.43
2019-01-08T16:22:14.798Z,227.73
2019-01-08T16:24:43.447Z,179.53
2019-01-08T16:27:12.187Z,184.53
2019-01-08T16:29:40.827Z,176.70
2019-01-08T16:32:09.551Z,181.40
2019-01-08T16:34:38.204Z,175.37
2019-01-08T16:37:06.861Z,190.23
2019-01-08T16:39:35.582Z,184.30
2019-01-08T16:42:04.462Z,278.10
2019-01-08T16:44:33.159Z,220.10
2019-01-08T16:47:01.984Z,225.90
2019-01-08T16:49:30.613Z,214.73
2019-01-08T16:51:59.324Z,216.50
2019-01-08T16:54:28.097Z,221.43
2019-01-08T16:56:56.780Z,224.27
2019-01-08T16:59:25.472Z,214.50
2019-01-08T17:01:54.178Z,213.43
2019-01-08T17:04:22.846Z,215.47
2019-01-08T17:06:51.499Z,210.07
2019-01-08T17:09:20.183Z,210.80
2019-01-08T17:11:48.887Z,217.83
2019-01-08T17:14:17.553Z,202.13
2019-01-08T17:16:46.240Z,231.60
2019-01-08T17:19:14.880Z,227.87
2019-01-08T17:21:43.555Z,254.17
2019-01-08T17:24:12.477Z,246.80
2019-01-08T17:26:42.721Z,303.50
2019-01-08T17:29:11.394Z,323.57
2019-01-08T17:31:40.093Z,318.57
2019-01-08T17:34:08.785Z,288.63
2019-01-08T17:36:37.519Z,270.63
2019-01-08T17:39:06.889Z,214.67
2019-01-08T17:41:35.548Z,227.73
2019-01-08T17:44:04.225Z,231.63
2019-01-08T17:46:32.894Z,244.40
2019-01-08T17:49:01.574Z,257.65
2019-01-08T17:51:30.238Z,191.70
2019-01-08T17:53:58.960Z,231.20
2019-01-08T17:56:27.616Z,213.57
2019-01-08T17:58:59.581Z,254.20
2019-01-08T18:01:28.239Z,318.87
2019-01-08T18:03:56.938Z,305.77
2019-01-08T18:06:25.622Z,307.93
2019-01-08T18:08:54.287Z,403.40
2019-01-08T18:11:23.027Z,355.17
2019-01-08T18:13:51.840Z,375.67
2019-01-08T18:16:23.629Z,354.47
2019-01-08T18:18:52.360Z,333.93
2019-01-08T18:21:23.184Z,302.60
2019-01-08T18:23:51.920Z,242.83
2019-01-08T18:31:35.466Z,259.50
2019-01-08T18:34:04.186Z,152.00
2019-01-08T18:36:32.922Z,158.03
2019-01-08T18:39:01.642Z,161.50
2019-01-08T18:41:30.383Z,149.13
2019-01-08T18:43:59.079Z,156.77
2019-01-08T18:46:27.841Z,148.57
2019-01-08T18:48:56.524Z,174.47
2019-01-08T18:51:25.263Z,150.37
2019-01-08T18:53:53.965Z,141.03
2019-01-08T18:56:22.675Z,151.93
2019-01-08T18:58:51.396Z,157.93
2019-01-08T19:01:20.064Z,143.97
2019-01-08T19:03:48.739Z,146.77
2019-01-08T19:06:17.434Z,125.63
2019-01-08T19:09:20.948Z,110.63
2019-01-08T19:11:49.616Z,108.73
2019-01-08T19:14:19.789Z,108.57
2019-01-08T19:16:48.519Z,112.03
2019-01-08T19:19:17.320Z,126.50
2019-01-08T19:21:46.081Z,123.07
2019-01-08T19:24:14.771Z,136.33
2019-01-08T19:26:43.446Z,147.83
2019-01-08T19:29:12.316Z,139.83
2019-01-08T19:31:42.970Z,156.33
2019-01-08T19:34:11.409Z,120.13
2019-01-08T19:36:40.091Z,127.13
2019-01-08T19:39:08.897Z,148.57
2019-01-08T19:41:37.621Z,145.23
2019-01-08T19:44:06.348Z,184.13
2019-01-08T19:46:35.096Z,213.00
2019-01-08T19:49:03.830Z,199.00
2019-01-08T19:51:32.512Z,173.13
2019-01-08T19:54:01.274Z,164.57
2019-01-08T19:56:29.979Z,169.97
2019-01-08T19:58:58.854Z,163.60
2019-01-08T20:01:27.792Z,169.47
2019-01-08T20:03:56.554Z,192.70
2019-01-08T20:06:25.265Z,201.33
2019-01-08T20:08:53.952Z,194.90
2019-01-08T20:11:22.677Z,186.37
2019-01-08T20:13:51.348Z,207.07
2019-01-08T20:16:20.021Z,281.40
2019-01-08T20:18:48.748Z,250.57
2019-01-08T20:21:17.466Z,243.73
2019-01-08T20:23:46.269Z,241.30
2019-01-08T20:26:17.929Z,238.27
2019-01-08T20:28:49.868Z,253.80
2019-01-08T20:31:18.614Z,242.37
2019-01-08T20:33:47.287Z,233.37
2019-01-08T20:36:15.958Z,214.77
2019-01-08T20:38:44.650Z,868.23
2019-01-08T20:41:13.992Z,214.23
2019-01-08T20:43:42.947Z,207.90
2019-01-08T20:46:11.611Z,235.43
2019-01-08T20:48:40.336Z,240.07
2019-01-08T20:51:09.030Z,238.03
2019-01-08T20:53:37.813Z,212.97
2019-01-08T20:56:07.080Z,199.07
2019-01-08T20:58:35.850Z,241.13
2019-01-08T21:01:04.526Z,228.80
2019-01-08T21:03:33.307Z,216.67
2019-01-08T21:06:02.954Z,250.83
2019-01-08T21:08:31.610Z,215.17
2019-01-08T21:11:00.281Z,197.53
2019-01-08T21:13:28.954Z,182.53
2019-01-08T21:15:57.749Z,188.13
2019-01-08T21:18:26.401Z,218.07
2019-01-08T21:20:55.068Z,189.30
2019-01-08T21:23:23.748Z,143.67
2019-01-08T21:25:52.442Z,175.50
2019-01-08T21:28:21.111Z,260.80
2019-01-08T21:30:49.773Z,263.97
2019-01-08T21:33:20.110Z,258.87
2019-01-08T21:35:48.784Z,265.77
2019-01-08T21:38:17.500Z,259.90
2019-01-08T21:40:46.177Z,257.20
2019-01-08T21:43:14.863Z,239.63
2019-01-08T21:45:45.652Z,262.77
2019-01-08T21:48:14.443Z,273.27
2019-01-08T21:50:43.176Z,279.37
2019-01-08T21:53:11.819Z,220.67
2019-01-08T21:55:40.526Z,214.87
2019-01-08T21:58:09.221Z,185.80
2019-01-08T22:00:37.888Z,212.27
2019-01-08T22:03:06.565Z,224.77
2019-01-08T22:05:35.245Z,229.97
2019-01-08T22:08:03.984Z,217.90
2019-01-08T22:10:32.648Z,223.80
2019-01-08T22:13:01.325Z,218.93
2019-01-08T22:15:30.008Z,171.97
2019-01-08T22:17:58.680Z,162.90
2019-01-08T22:20:27.360Z,153.33
2019-01-08T22:22:56.042Z,149.60
2019-01-08T22:25:24.849Z,149.50
2019-01-08T22:27:53.539Z,145.67
2019-01-08T22:30:22.201Z,153.87
2019-01-08T22:32:52.292Z,145.80
2019-01-08T22:35:20.989Z,105.50
2019-01-08T22:37:49.706Z,106.03
2019-01-08T22:40:18.367Z,112.10
2019-01-08T22:42:47.052Z,88.47
2019-01-08T22:45:15.728Z,104.63
2019-01-08T22:47:44.514Z,97.37
2019-01-08T22:50:13.225Z,110.47
2019-01-08T22:52:41.898Z,105.17
2019-01-08T22:55:10.572Z,129.63
2019-01-08T22:57:39.233Z,135.60
2019-01-08T23:00:15.222Z,114.67
2019-01-08T23:02:44.052Z,104.73
2019-01-08T23:05:12.752Z,106.27
2019-01-08T23:07:41.483Z,104.13
2019-01-08T23:10:10.173Z,106.53
2019-01-08T23:12:38.843Z,100.27
2019-01-08T23:15:08.213Z,105.77
2019-01-08T23:17:36.881Z,97.03
2019-01-08T23:20:07.836Z,102.17
2019-01-08T23:22:36.494Z,97.47
2019-01-08T23:25:05.198Z,106.83
2019-01-08T23:27:33.874Z,91.57
2019-01-08T23:30:02.556Z,90.17
2019-01-08T23:32:31.260Z,92.40
2019-01-08T23:34:59.935Z,72.23
2019-01-08T23:37:28.596Z,65.90
2019-01-08T23:39:57.264Z,56.47
2019-01-08T23:42:25.945Z,45.87
2019-01-08T23:44:54.666Z,46.37
2019-01-08T23:47:23.340Z,55.17
2019-01-08T23:49:52.001Z,53.17
2019-01-08T23:52:29.459Z,56.80
2019-01-08T23:54:58.151Z,54.47
2019-01-08T23:57:26.815Z,68.70
2019-01-08T23:59:55.486Z,57.70
